sensor_id;sensor_type;location;lat;lon;timestamp;temperature;humidity
19817;DHT22;68323;49.394;8.434;2023-06-22T00:02:15;23.20;99.90
19817;DHT22;68323;49.394;8.434;2023-06-22T00:04:41;23.20;99.90
19817;DHT22;68323;49.394;8.434;2023-06-22T00:07:07;23.20;99.90
19817;DHT22;68323;49.394;8.434;2023-06-22T00:09:33;23.20;99.90
19817;DHT22;68323;49.394;8.434;2023-06-22T00:11:59;23.20;99.90
19817;DHT22;68323;49.394;8.434;2023-06-22T00:14:24;23.20;99.90
19817;DHT22;68323;49.394;8.434;2023-06-22T00:16:50;23.20;99.90
19817;DHT22;68323;49.394;8.434;2023-06-22T00:19:20;23.20;99.90
19817;DHT22;68323;49.394;8.434;2023-06-22T00:21:47;23.20;99.90
19817;DHT22;68323;49.394;8.434;2023-06-22T00:24:13;23.10;99.90
19817;DHT22;68323;49.394;8.434;2023-06-22T00:26:39;23.10;99.90
19817;DHT22;68323;49.394;8.434;2023-06-22T00:29:04;23.10;99.90
19817;DHT22;68323;49.394;8.434;2023-06-22T00:31:30;23.10;99.90
19817;DHT22;68323;49.394;8.434;2023-06-22T00:33:55;23.00;99.90
19817;DHT22;68323;49.394;8.434;2023-06-22T00:36:21;23.00;99.90
19817;DHT22;68323;49.394;8.434;2023-06-22T00:38:47;23.00;99.90
19817;DHT22;68323;49.394;8.434;2023-06-22T00:41:12;23.00;99.90
19817;DHT22;68323;49.394;8.434;2023-06-22T00:43:38;23.10;99.90
19817;DHT22;68323;49.394;8.434;2023-06-22T00:46:03;23.20;99.90
19817;DHT22;68323;49.394;8.434;2023-06-22T00:48:29;23.30;99.90
19817;DHT22;68323;49.394;8.434;2023-06-22T00:50:55;23.30;99.90
19817;DHT22;68323;49.394;8.434;2023-06-22T00:53:21;23.40;99.90
19817;DHT22;68323;49.394;8.434;2023-06-22T00:55:47;23.10;99.90
19817;DHT22;68323;49.394;8.434;2023-06-22T00:58:13;22.90;99.90
19817;DHT22;68323;49.394;8.434;2023-06-22T01:00:40;22.70;99.90
19817;DHT22;68323;49.394;8.434;2023-06-22T01:03:06;22.40;99.90
19817;DHT22;68323;49.394;8.434;2023-06-22T01:05:35;22.20;99.90
19817;DHT22;68323;49.394;8.434;2023-06-22T01:16:22;21.90;99.90
19817;DHT22;68323;49.394;8.434;2023-06-22T01:18:52;21.90;99.90
19817;DHT22;68323;49.394;8.434;2023-06-22T01:21:19;21.80;99.90
19817;DHT22;68323;49.394;8.434;2023-06-22T01:24:10;21.80;99.90
19817;DHT22;68323;49.394;8.434;2023-06-22T01:29:17;21.80;99.90
19817;DHT22;68323;49.394;8.434;2023-06-22T01:31:44;21.80;99.90
19817;DHT22;68323;49.394;8.434;2023-06-22T01:34:11;21.80;99.90
19817;DHT22;68323;49.394;8.434;2023-06-22T01:36:38;21.90;99.90
19817;DHT22;68323;49.394;8.434;2023-06-22T01:39:05;21.80;99.90
19817;DHT22;68323;49.394;8.434;2023-06-22T01:41:37;21.80;99.90
19817;DHT22;68323;49.394;8.434;2023-06-22T01:44:05;21.90;99.90
19817;DHT22;68323;49.394;8.434;2023-06-22T01:46:34;21.90;99.90
19817;DHT22;68323;49.394;8.434;2023-06-22T01:49:00;21.90;99.90
19817;DHT22;68323;49.394;8.434;2023-06-22T01:51:26;21.90;99.90
19817;DHT22;68323;49.394;8.434;2023-06-22T01:53:51;21.90;99.90
19817;DHT22;68323;49.394;8.434;2023-06-22T01:56:17;22.00;99.90
19817;DHT22;68323;49.394;8.434;2023-06-22T01:59:25;22.00;99.90
19817;DHT22;68323;49.394;8.434;2023-06-22T02:02:02;22.00;99.90
19817;DHT22;68323;49.394;8.434;2023-06-22T02:04:36;21.90;99.90
19817;DHT22;68323;49.394;8.434;2023-06-22T02:07:06;21.90;99.90
19817;DHT22;68323;49.394;8.434;2023-06-22T02:09:35;21.90;99.90
19817;DHT22;68323;49.394;8.434;2023-06-22T02:12:04;21.90;99.90
19817;DHT22;68323;49.394;8.434;2023-06-22T02:14:30;22.00;99.90
19817;DHT22;68323;49.394;8.434;2023-06-22T02:16:56;22.00;99.90
19817;DHT22;68323;49.394;8.434;2023-06-22T02:19:24;22.00;99.90
19817;DHT22;68323;49.394;8.434;2023-06-22T02:21:50;22.10;99.90
19817;DHT22;68323;49.394;8.434;2023-06-22T02:24:15;22.10;99.90
19817;DHT22;68323;49.394;8.434;2023-06-22T02:26:42;22.20;99.90
19817;DHT22;68323;49.394;8.434;2023-06-22T02:29:09;22.10;99.90
19817;DHT22;68323;49.394;8.434;2023-06-22T02:31:35;22.10;99.90
19817;DHT22;68323;49.394;8.434;2023-06-22T02:34:00;22.20;99.90
19817;DHT22;68323;49.394;8.434;2023-06-22T02:36:26;22.20;99.90
19817;DHT22;68323;49.394;8.434;2023-06-22T02:38:55;22.20;99.90
19817;DHT22;68323;49.394;8.434;2023-06-22T02:41:26;22.10;99.90
19817;DHT22;68323;49.394;8.434;2023-06-22T02:43:52;22.10;99.90
19817;DHT22;68323;49.394;8.434;2023-06-22T02:46:17;22.10;99.90
19817;DHT22;68323;49.394;8.434;2023-06-22T02:48:43;22.10;99.90
19817;DHT22;68323;49.394;8.434;2023-06-22T02:51:08;22.10;99.90
19817;DHT22;68323;49.394;8.434;2023-06-22T02:53:34;22.10;99.90
19817;DHT22;68323;49.394;8.434;2023-06-22T02:56:02;22.10;99.90
19817;DHT22;68323;49.394;8.434;2023-06-22T02:58:28;22.10;99.90
19817;DHT22;68323;49.394;8.434;2023-06-22T03:00:54;22.10;99.90
19817;DHT22;68323;49.394;8.434;2023-06-22T03:03:19;22.00;99.90
19817;DHT22;68323;49.394;8.434;2023-06-22T03:05:45;22.00;99.90
19817;DHT22;68323;49.394;8.434;2023-06-22T03:08:11;22.00;99.90
19817;DHT22;68323;49.394;8.434;2023-06-22T03:10:36;22.00;99.90
19817;DHT22;68323;49.394;8.434;2023-06-22T03:13:02;22.00;99.90
19817;DHT22;68323;49.394;8.434;2023-06-22T03:15:28;22.00;99.90
19817;DHT22;68323;49.394;8.434;2023-06-22T03:17:54;22.00;99.90
19817;DHT22;68323;49.394;8.434;2023-06-22T03:20:20;22.00;99.90
19817;DHT22;68323;49.394;8.434;2023-06-22T03:22:46;22.00;99.90
19817;DHT22;68323;49.394;8.434;2023-06-22T03:25:11;21.90;99.90
19817;DHT22;68323;49.394;8.434;2023-06-22T03:27:39;21.90;99.90
19817;DHT22;68323;49.394;8.434;2023-06-22T03:30:06;21.80;99.90
19817;DHT22;68323;49.394;8.434;2023-06-22T03:32:32;21.80;99.90
19817;DHT22;68323;49.394;8.434;2023-06-22T03:34:58;21.80;99.90
19817;DHT22;68323;49.394;8.434;2023-06-22T03:37:25;21.80;99.90
19817;DHT22;68323;49.394;8.434;2023-06-22T03:39:51;21.80;99.90
19817;DHT22;68323;49.394;8.434;2023-06-22T03:42:17;21.80;99.90
19817;DHT22;68323;49.394;8.434;2023-06-22T03:44:42;21.90;99.90
19817;DHT22;68323;49.394;8.434;2023-06-22T03:47:08;21.90;99.90
19817;DHT22;68323;49.394;8.434;2023-06-22T03:49:34;21.90;99.90
19817;DHT22;68323;49.394;8.434;2023-06-22T03:52:01;22.00;99.90
19817;DHT22;68323;49.394;8.434;2023-06-22T03:54:30;22.00;99.90
19817;DHT22;68323;49.394;8.434;2023-06-22T03:56:59;22.00;99.90
19817;DHT22;68323;49.394;8.434;2023-06-22T03:59:25;22.00;99.90
19817;DHT22;68323;49.394;8.434;2023-06-22T04:01:51;22.00;99.90
19817;DHT22;68323;49.394;8.434;2023-06-22T04:04:17;22.10;99.90
19817;DHT22;68323;49.394;8.434;2023-06-22T04:06:43;22.10;99.90
19817;DHT22;68323;49.394;8.434;2023-06-22T04:09:11;22.10;99.90
19817;DHT22;68323;49.394;8.434;2023-06-22T04:11:37;22.20;99.90
19817;DHT22;68323;49.394;8.434;2023-06-22T04:14:02;22.30;99.90
19817;DHT22;68323;49.394;8.434;2023-06-22T04:16:28;22.40;99.90
19817;DHT22;68323;49.394;8.434;2023-06-22T04:18:54;22.40;99.90
19817;DHT22;68323;49.394;8.434;2023-06-22T04:21:19;22.50;99.90
19817;DHT22;68323;49.394;8.434;2023-06-22T04:23:45;22.60;99.90
19817;DHT22;68323;49.394;8.434;2023-06-22T04:26:11;22.60;99.90
19817;DHT22;68323;49.394;8.434;2023-06-22T04:28:37;22.60;99.90
19817;DHT22;68323;49.394;8.434;2023-06-22T04:31:03;22.60;99.90
19817;DHT22;68323;49.394;8.434;2023-06-22T04:33:28;22.60;99.90
19817;DHT22;68323;49.394;8.434;2023-06-22T04:35:57;22.60;99.90
19817;DHT22;68323;49.394;8.434;2023-06-22T04:38:24;22.60;99.90
19817;DHT22;68323;49.394;8.434;2023-06-22T04:40:50;22.70;99.90
19817;DHT22;68323;49.394;8.434;2023-06-22T04:43:16;22.80;99.90
19817;DHT22;68323;49.394;8.434;2023-06-22T04:45:42;22.90;99.90
19817;DHT22;68323;49.394;8.434;2023-06-22T04:48:07;22.90;99.90
19817;DHT22;68323;49.394;8.434;2023-06-22T04:50:36;23.10;99.90
19817;DHT22;68323;49.394;8.434;2023-06-22T04:53:02;23.20;99.90
19817;DHT22;68323;49.394;8.434;2023-06-22T04:55:31;23.30;99.90
19817;DHT22;68323;49.394;8.434;2023-06-22T04:57:56;23.40;99.90
19817;DHT22;68323;49.394;8.434;2023-06-22T05:00:29;23.50;99.90
19817;DHT22;68323;49.394;8.434;2023-06-22T05:02:55;23.60;99.90
19817;DHT22;68323;49.394;8.434;2023-06-22T05:05:23;23.60;99.90
19817;DHT22;68323;49.394;8.434;2023-06-22T05:07:50;23.70;99.90
19817;DHT22;68323;49.394;8.434;2023-06-22T05:10:18;23.90;99.90
19817;DHT22;68323;49.394;8.434;2023-06-22T05:12:45;23.90;99.90
19817;DHT22;68323;49.394;8.434;2023-06-22T05:15:11;24.00;99.90
19817;DHT22;68323;49.394;8.434;2023-06-22T05:17:37;24.20;99.90
19817;DHT22;68323;49.394;8.434;2023-06-22T05:20:09;24.30;99.90
19817;DHT22;68323;49.394;8.434;2023-06-22T05:22:35;24.40;99.90
19817;DHT22;68323;49.394;8.434;2023-06-22T05:25:00;24.60;99.90
19817;DHT22;68323;49.394;8.434;2023-06-22T05:27:26;24.80;99.90
19817;DHT22;68323;49.394;8.434;2023-06-22T05:29:51;25.10;99.90
19817;DHT22;68323;49.394;8.434;2023-06-22T05:32:17;25.60;99.90
19817;DHT22;68323;49.394;8.434;2023-06-22T05:34:42;26.10;99.90
19817;DHT22;68323;49.394;8.434;2023-06-22T05:37:08;26.70;99.90
19817;DHT22;68323;49.394;8.434;2023-06-22T05:39:35;27.20;99.90
19817;DHT22;68323;49.394;8.434;2023-06-22T05:42:06;27.90;99.90
19817;DHT22;68323;49.394;8.434;2023-06-22T05:44:33;28.50;99.90
19817;DHT22;68323;49.394;8.434;2023-06-22T05:46:59;29.20;99.90
19817;DHT22;68323;49.394;8.434;2023-06-22T05:49:24;29.80;99.90
19817;DHT22;68323;49.394;8.434;2023-06-22T05:51:55;30.20;99.90
19817;DHT22;68323;49.394;8.434;2023-06-22T05:54:20;30.50;98.70
19817;DHT22;68323;49.394;8.434;2023-06-22T05:56:46;30.90;98.10
19817;DHT22;68323;49.394;8.434;2023-06-22T05:59:11;31.30;95.40
19817;DHT22;68323;49.394;8.434;2023-06-22T06:01:37;31.60;94.50
19817;DHT22;68323;49.394;8.434;2023-06-22T06:04:03;31.80;93.40
19817;DHT22;68323;49.394;8.434;2023-06-22T06:06:29;32.00;92.50
19817;DHT22;68323;49.394;8.434;2023-06-22T06:08:55;32.40;92.10
19817;DHT22;68323;49.394;8.434;2023-06-22T06:11:22;32.80;90.70
19817;DHT22;68323;49.394;8.434;2023-06-22T06:13:47;33.20;86.40
19817;DHT22;68323;49.394;8.434;2023-06-22T06:16:13;33.60;84.60
19817;DHT22;68323;49.394;8.434;2023-06-22T06:18:38;33.90;81.70
19817;DHT22;68323;49.394;8.434;2023-06-22T06:21:04;34.10;78.40
19817;DHT22;68323;49.394;8.434;2023-06-22T06:23:29;34.30;72.80
19817;DHT22;68323;49.394;8.434;2023-06-22T06:25:55;34.40;71.70
19817;DHT22;68323;49.394;8.434;2023-06-22T06:28:22;34.50;71.00
19817;DHT22;68323;49.394;8.434;2023-06-22T06:30:47;34.60;68.20
19817;DHT22;68323;49.394;8.434;2023-06-22T06:33:13;34.80;65.90
19817;DHT22;68323;49.394;8.434;2023-06-22T06:35:38;34.80;65.40
19817;DHT22;68323;49.394;8.434;2023-06-22T06:38:04;35.00;65.90
19817;DHT22;68323;49.394;8.434;2023-06-22T06:40:29;35.30;64.90
19817;DHT22;68323;49.394;8.434;2023-06-22T06:42:55;35.60;63.40
19817;DHT22;68323;49.394;8.434;2023-06-22T06:45:22;36.10;61.90
19817;DHT22;68323;49.394;8.434;2023-06-22T06:47:49;36.40;61.10
19817;DHT22;68323;49.394;8.434;2023-06-22T06:50:15;36.60;59.60
19817;DHT22;68323;49.394;8.434;2023-06-22T06:52:40;36.80;58.90
19817;DHT22;68323;49.394;8.434;2023-06-22T06:55:07;37.20;58.10
19817;DHT22;68323;49.394;8.434;2023-06-22T06:57:35;37.50;57.50
19817;DHT22;68323;49.394;8.434;2023-06-22T07:00:02;37.80;57.10
19817;DHT22;68323;49.394;8.434;2023-06-22T07:02:33;37.80;56.00
19817;DHT22;68323;49.394;8.434;2023-06-22T07:04:59;37.70;55.90
19817;DHT22;68323;49.394;8.434;2023-06-22T07:07:24;37.60;55.10
19817;DHT22;68323;49.394;8.434;2023-06-22T07:09:50;37.40;55.20
19817;DHT22;68323;49.394;8.434;2023-06-22T07:12:15;37.20;55.50
19817;DHT22;68323;49.394;8.434;2023-06-22T07:14:41;37.00;54.70
19817;DHT22;68323;49.394;8.434;2023-06-22T07:17:07;36.80;55.20
19817;DHT22;68323;49.394;8.434;2023-06-22T07:19:33;36.70;54.90
19817;DHT22;68323;49.394;8.434;2023-06-22T07:21:58;36.60;55.80
19817;DHT22;68323;49.394;8.434;2023-06-22T07:24:24;36.80;55.30
19817;DHT22;68323;49.394;8.434;2023-06-22T07:26:50;37.10;54.70
19817;DHT22;68323;49.394;8.434;2023-06-22T07:29:20;37.00;53.70
19817;DHT22;68323;49.394;8.434;2023-06-22T07:31:49;36.80;54.50
19817;DHT22;68323;49.394;8.434;2023-06-22T07:34:16;36.80;54.60
19817;DHT22;68323;49.394;8.434;2023-06-22T07:36:42;36.80;53.50
19817;DHT22;68323;49.394;8.434;2023-06-22T07:39:08;36.90;53.70
19817;DHT22;68323;49.394;8.434;2023-06-22T07:41:33;37.00;53.40
19817;DHT22;68323;49.394;8.434;2023-06-22T07:43:59;37.10;53.20
19817;DHT22;68323;49.394;8.434;2023-06-22T07:46:24;37.10;52.70
19817;DHT22;68323;49.394;8.434;2023-06-22T07:48:50;37.10;52.60
19817;DHT22;68323;49.394;8.434;2023-06-22T07:51:15;37.00;52.10
19817;DHT22;68323;49.394;8.434;2023-06-22T07:53:42;36.90;52.10
19817;DHT22;68323;49.394;8.434;2023-06-22T07:56:10;36.90;51.50
19817;DHT22;68323;49.394;8.434;2023-06-22T07:58:35;36.90;51.40
19817;DHT22;68323;49.394;8.434;2023-06-22T08:01:01;36.70;51.60
19817;DHT22;68323;49.394;8.434;2023-06-22T08:03:27;36.60;52.10
19817;DHT22;68323;49.394;8.434;2023-06-22T08:05:53;36.60;52.30
19817;DHT22;68323;49.394;8.434;2023-06-22T08:08:18;36.60;52.00
19817;DHT22;68323;49.394;8.434;2023-06-22T08:10:44;36.90;52.40
19817;DHT22;68323;49.394;8.434;2023-06-22T08:13:10;37.30;51.50
19817;DHT22;68323;49.394;8.434;2023-06-22T08:15:36;37.70;50.70
19817;DHT22;68323;49.394;8.434;2023-06-22T08:18:01;38.10;50.40
19817;DHT22;68323;49.394;8.434;2023-06-22T08:20:27;38.30;50.40
19817;DHT22;68323;49.394;8.434;2023-06-22T08:22:54;38.50;49.80
19817;DHT22;68323;49.394;8.434;2023-06-22T08:25:19;38.70;49.30
19817;DHT22;68323;49.394;8.434;2023-06-22T08:27:46;39.10;48.80
19817;DHT22;68323;49.394;8.434;2023-06-22T08:30:15;39.40;48.00
19817;DHT22;68323;49.394;8.434;2023-06-22T08:32:42;39.60;47.70
19817;DHT22;68323;49.394;8.434;2023-06-22T08:35:07;39.80;46.90
19817;DHT22;68323;49.394;8.434;2023-06-22T08:37:34;39.80;46.70
19817;DHT22;68323;49.394;8.434;2023-06-22T08:40:02;39.70;46.40
19817;DHT22;68323;49.394;8.434;2023-06-22T08:42:30;39.30;46.80
19817;DHT22;68323;49.394;8.434;2023-06-22T08:44:56;39.20;47.40
19817;DHT22;68323;49.394;8.434;2023-06-22T08:47:22;39.10;47.40
19817;DHT22;68323;49.394;8.434;2023-06-22T08:52:14;39.60;46.30
19817;DHT22;68323;49.394;8.434;2023-06-22T08:54:40;40.10;46.20
19817;DHT22;68323;49.394;8.434;2023-06-22T08:57:05;40.40;45.50
19817;DHT22;68323;49.394;8.434;2023-06-22T08:59:31;40.60;44.70
19817;DHT22;68323;49.394;8.434;2023-06-22T09:01:57;40.60;44.60
19817;DHT22;68323;49.394;8.434;2023-06-22T09:04:22;40.60;44.70
19817;DHT22;68323;49.394;8.434;2023-06-22T09:06:48;40.20;45.40
19817;DHT22;68323;49.394;8.434;2023-06-22T09:09:16;39.90;45.50
19817;DHT22;68323;49.394;8.434;2023-06-22T09:11:42;39.80;45.70
19817;DHT22;68323;49.394;8.434;2023-06-22T09:14:08;39.60;45.50
19817;DHT22;68323;49.394;8.434;2023-06-22T09:16:34;39.60;45.70
19817;DHT22;68323;49.394;8.434;2023-06-22T09:19:00;39.90;45.20
19817;DHT22;68323;49.394;8.434;2023-06-22T09:21:25;39.90;44.90
19817;DHT22;68323;49.394;8.434;2023-06-22T09:23:51;39.90;44.90
19817;DHT22;68323;49.394;8.434;2023-06-22T09:26:18;40.30;45.10
19817;DHT22;68323;49.394;8.434;2023-06-22T09:28:43;40.80;44.40
19817;DHT22;68323;49.394;8.434;2023-06-22T09:31:09;40.80;43.90
19817;DHT22;68323;49.394;8.434;2023-06-22T09:33:36;40.80;44.30
19817;DHT22;68323;49.394;8.434;2023-06-22T09:36:01;40.80;44.30
19817;DHT22;68323;49.394;8.434;2023-06-22T09:38:27;40.70;44.50
19817;DHT22;68323;49.394;8.434;2023-06-22T09:40:52;40.70;45.00
19817;DHT22;68323;49.394;8.434;2023-06-22T09:43:18;40.80;44.50
19817;DHT22;68323;49.394;8.434;2023-06-22T09:45:43;41.10;44.40
19817;DHT22;68323;49.394;8.434;2023-06-22T09:48:09;41.40;43.90
19817;DHT22;68323;49.394;8.434;2023-06-22T09:50:37;41.50;43.60
19817;DHT22;68323;49.394;8.434;2023-06-22T09:53:03;41.20;43.70
19817;DHT22;68323;49.394;8.434;2023-06-22T09:55:28;41.00;44.30
19817;DHT22;68323;49.394;8.434;2023-06-22T09:57:54;40.80;44.50
19817;DHT22;68323;49.394;8.434;2023-06-22T10:00:21;40.60;44.60
19817;DHT22;68323;49.394;8.434;2023-06-22T10:02:47;40.70;45.70
19817;DHT22;68323;49.394;8.434;2023-06-22T10:05:13;40.70;44.70
19817;DHT22;68323;49.394;8.434;2023-06-22T10:07:38;40.50;44.60
19817;DHT22;68323;49.394;8.434;2023-06-22T10:10:08;40.10;45.40
19817;DHT22;68323;49.394;8.434;2023-06-22T10:12:33;39.80;46.10
19817;DHT22;68323;49.394;8.434;2023-06-22T10:14:59;39.50;46.30
19817;DHT22;68323;49.394;8.434;2023-06-22T10:17:25;38.80;47.10
19817;DHT22;68323;49.394;8.434;2023-06-22T10:19:50;38.40;48.10
19817;DHT22;68323;49.394;8.434;2023-06-22T10:22:16;37.90;48.50
19817;DHT22;68323;49.394;8.434;2023-06-22T10:24:41;37.80;49.20
19817;DHT22;68323;49.394;8.434;2023-06-22T10:27:11;37.70;49.20
19817;DHT22;68323;49.394;8.434;2023-06-22T10:29:37;37.60;49.80
19817;DHT22;68323;49.394;8.434;2023-06-22T10:32:03;37.60;49.60
19817;DHT22;68323;49.394;8.434;2023-06-22T10:34:29;37.50;50.10
19817;DHT22;68323;49.394;8.434;2023-06-22T10:36:54;37.40;50.30
19817;DHT22;68323;49.394;8.434;2023-06-22T10:39:20;37.30;50.70
19817;DHT22;68323;49.394;8.434;2023-06-22T10:41:46;37.40;50.20
19817;DHT22;68323;49.394;8.434;2023-06-22T10:44:11;37.70;50.30
19817;DHT22;68323;49.394;8.434;2023-06-22T10:46:37;38.30;49.50
19817;DHT22;68323;49.394;8.434;2023-06-22T10:49:03;38.90;49.10
19817;DHT22;68323;49.394;8.434;2023-06-22T10:51:28;39.30;48.10
19817;DHT22;68323;49.394;8.434;2023-06-22T10:53:54;39.50;47.50
19817;DHT22;68323;49.394;8.434;2023-06-22T10:56:20;39.40;47.10
19817;DHT22;68323;49.394;8.434;2023-06-22T10:58:46;39.20;47.80
19817;DHT22;68323;49.394;8.434;2023-06-22T11:01:11;38.50;47.70
19817;DHT22;68323;49.394;8.434;2023-06-22T11:03:37;37.80;48.90
19817;DHT22;68323;49.394;8.434;2023-06-22T11:06:02;37.30;49.70
19817;DHT22;68323;49.394;8.434;2023-06-22T11:08:28;36.80;50.10
19817;DHT22;68323;49.394;8.434;2023-06-22T11:10:54;36.30;51.50
19817;DHT22;68323;49.394;8.434;2023-06-22T11:13:19;36.20;52.00
19817;DHT22;68323;49.394;8.434;2023-06-22T11:15:45;36.00;52.20
19817;DHT22;68323;49.394;8.434;2023-06-22T11:18:10;35.80;52.20
19817;DHT22;68323;49.394;8.434;2023-06-22T11:20:36;35.60;52.40
19817;DHT22;68323;49.394;8.434;2023-06-22T11:23:04;35.50;52.60
19817;DHT22;68323;49.394;8.434;2023-06-22T11:25:30;35.50;52.80
19817;DHT22;68323;49.394;8.434;2023-06-22T11:27:56;35.50;53.00
19817;DHT22;68323;49.394;8.434;2023-06-22T11:30:21;35.70;53.20
19817;DHT22;68323;49.394;8.434;2023-06-22T11:32:48;35.70;52.90
19817;DHT22;68323;49.394;8.434;2023-06-22T11:35:13;35.60;53.10
19817;DHT22;68323;49.394;8.434;2023-06-22T11:37:39;35.40;53.20
19817;DHT22;68323;49.394;8.434;2023-06-22T11:40:05;35.20;54.00
19817;DHT22;68323;49.394;8.434;2023-06-22T11:42:33;35.10;54.60
19817;DHT22;68323;49.394;8.434;2023-06-22T11:44:59;35.00;54.60
19817;DHT22;68323;49.394;8.434;2023-06-22T11:47:25;34.90;55.20
19817;DHT22;68323;49.394;8.434;2023-06-22T11:49:50;34.90;55.10
19817;DHT22;68323;49.394;8.434;2023-06-22T11:52:16;34.80;55.00
19817;DHT22;68323;49.394;8.434;2023-06-22T11:54:43;34.80;55.30
19817;DHT22;68323;49.394;8.434;2023-06-22T11:57:08;34.80;55.70
19817;DHT22;68323;49.394;8.434;2023-06-22T11:59:34;35.00;55.20
19817;DHT22;68323;49.394;8.434;2023-06-22T12:01:59;35.10;54.50
19817;DHT22;68323;49.394;8.434;2023-06-22T12:04:25;35.20;54.40
19817;DHT22;68323;49.394;8.434;2023-06-22T12:06:51;35.60;53.90
19817;DHT22;68323;49.394;8.434;2023-06-22T12:09:16;35.90;52.90
19817;DHT22;68323;49.394;8.434;2023-06-22T12:11:42;36.20;52.50
19817;DHT22;68323;49.394;8.434;2023-06-22T12:14:07;36.50;52.10
19817;DHT22;68323;49.394;8.434;2023-06-22T12:16:33;36.60;52.10
19817;DHT22;68323;49.394;8.434;2023-06-22T12:18:58;36.70;51.80
19817;DHT22;68323;49.394;8.434;2023-06-22T12:21:24;36.80;51.90
19817;DHT22;68323;49.394;8.434;2023-06-22T12:23:49;36.80;51.50
19817;DHT22;68323;49.394;8.434;2023-06-22T12:26:15;36.90;51.20
19817;DHT22;68323;49.394;8.434;2023-06-22T12:28:41;36.90;50.90
19817;DHT22;68323;49.394;8.434;2023-06-22T12:31:06;36.70;51.00
19817;DHT22;68323;49.394;8.434;2023-06-22T12:33:32;36.50;51.40
19817;DHT22;68323;49.394;8.434;2023-06-22T12:35:57;36.50;51.80
19817;DHT22;68323;49.394;8.434;2023-06-22T12:38:23;36.20;52.40
19817;DHT22;68323;49.394;8.434;2023-06-22T12:40:51;36.10;52.70
19817;DHT22;68323;49.394;8.434;2023-06-22T12:43:16;36.00;52.70
19817;DHT22;68323;49.394;8.434;2023-06-22T12:45:42;35.80;52.70
19817;DHT22;68323;49.394;8.434;2023-06-22T12:48:07;35.70;53.40
19817;DHT22;68323;49.394;8.434;2023-06-22T12:50:34;35.70;53.70
19817;DHT22;68323;49.394;8.434;2023-06-22T12:52:59;35.70;53.90
19817;DHT22;68323;49.394;8.434;2023-06-22T12:55:27;35.90;53.80
19817;DHT22;68323;49.394;8.434;2023-06-22T12:57:53;35.90;52.90
19817;DHT22;68323;49.394;8.434;2023-06-22T13:00:18;35.90;52.50
19817;DHT22;68323;49.394;8.434;2023-06-22T13:02:45;35.80;52.50
19817;DHT22;68323;49.394;8.434;2023-06-22T13:05:10;35.80;52.90
19817;DHT22;68323;49.394;8.434;2023-06-22T13:07:37;35.80;53.30
19817;DHT22;68323;49.394;8.434;2023-06-22T13:10:03;35.90;53.20
19817;DHT22;68323;49.394;8.434;2023-06-22T13:12:29;36.00;53.30
19817;DHT22;68323;49.394;8.434;2023-06-22T13:14:54;36.00;53.50
19817;DHT22;68323;49.394;8.434;2023-06-22T13:17:20;35.90;53.30
19817;DHT22;68323;49.394;8.434;2023-06-22T13:19:46;35.80;53.70
19817;DHT22;68323;49.394;8.434;2023-06-22T13:22:31;35.60;53.80
19817;DHT22;68323;49.394;8.434;2023-06-22T13:24:58;35.60;52.70
19817;DHT22;68323;49.394;8.434;2023-06-22T13:27:24;35.70;52.80
19817;DHT22;68323;49.394;8.434;2023-06-22T13:29:50;35.90;52.60
19817;DHT22;68323;49.394;8.434;2023-06-22T13:32:15;36.00;52.70
19817;DHT22;68323;49.394;8.434;2023-06-22T13:34:42;36.10;53.00
19817;DHT22;68323;49.394;8.434;2023-06-22T13:37:08;35.90;53.00
19817;DHT22;68323;49.394;8.434;2023-06-22T13:39:33;35.70;53.30
19817;DHT22;68323;49.394;8.434;2023-06-22T13:41:59;35.60;53.80
19817;DHT22;68323;49.394;8.434;2023-06-22T13:44:24;35.40;54.10
19817;DHT22;68323;49.394;8.434;2023-06-22T13:46:56;35.40;54.60
19817;DHT22;68323;49.394;8.434;2023-06-22T13:49:22;35.30;54.90
19817;DHT22;68323;49.394;8.434;2023-06-22T13:51:48;35.20;55.20
19817;DHT22;68323;49.394;8.434;2023-06-22T13:54:14;35.20;55.10
19817;DHT22;68323;49.394;8.434;2023-06-22T13:56:40;35.10;54.90
19817;DHT22;68323;49.394;8.434;2023-06-22T13:59:05;34.90;55.00
19817;DHT22;68323;49.394;8.434;2023-06-22T14:01:34;34.80;55.10
19817;DHT22;68323;49.394;8.434;2023-06-22T14:04:00;34.70;55.40
19817;DHT22;68323;49.394;8.434;2023-06-22T14:06:27;34.40;55.70
19817;DHT22;68323;49.394;8.434;2023-06-22T14:08:52;34.30;56.20
19817;DHT22;68323;49.394;8.434;2023-06-22T14:11:18;34.10;56.60
19817;DHT22;68323;49.394;8.434;2023-06-22T14:13:43;33.80;57.00
19817;DHT22;68323;49.394;8.434;2023-06-22T14:16:09;33.70;57.70
19817;DHT22;68323;49.394;8.434;2023-06-22T14:18:34;33.60;58.20
19817;DHT22;68323;49.394;8.434;2023-06-22T14:21:00;33.40;58.80
19817;DHT22;68323;49.394;8.434;2023-06-22T14:23:27;33.40;59.60
19817;DHT22;68323;49.394;8.434;2023-06-22T14:25:52;33.40;59.80
19817;DHT22;68323;49.394;8.434;2023-06-22T14:28:18;33.30;59.80
19817;DHT22;68323;49.394;8.434;2023-06-22T14:30:44;33.40;60.00
19817;DHT22;68323;49.394;8.434;2023-06-22T14:33:09;33.40;59.70
19817;DHT22;68323;49.394;8.434;2023-06-22T14:35:35;33.40;59.60
19817;DHT22;68323;49.394;8.434;2023-06-22T14:38:00;33.40;59.90
19817;DHT22;68323;49.394;8.434;2023-06-22T14:40:26;33.30;60.10
19817;DHT22;68323;49.394;8.434;2023-06-22T14:42:51;33.20;60.60
19817;DHT22;68323;49.394;8.434;2023-06-22T14:45:17;33.20;60.70
19817;DHT22;68323;49.394;8.434;2023-06-22T14:47:43;33.10;61.20
19817;DHT22;68323;49.394;8.434;2023-06-22T14:50:08;33.00;61.00
19817;DHT22;68323;49.394;8.434;2023-06-22T14:52:34;32.90;60.90
19817;DHT22;68323;49.394;8.434;2023-06-22T14:54:59;32.80;61.20
19817;DHT22;68323;49.394;8.434;2023-06-22T14:57:25;32.70;60.60
19817;DHT22;68323;49.394;8.434;2023-06-22T14:59:50;32.60;60.90
19817;DHT22;68323;49.394;8.434;2023-06-22T15:02:16;32.60;61.20
19817;DHT22;68323;49.394;8.434;2023-06-22T15:04:42;32.60;61.70
19817;DHT22;68323;49.394;8.434;2023-06-22T15:07:07;32.60;61.60
19817;DHT22;68323;49.394;8.434;2023-06-22T15:09:33;32.60;61.30
19817;DHT22;68323;49.394;8.434;2023-06-22T15:11:58;32.70;61.20
19817;DHT22;68323;49.394;8.434;2023-06-22T15:14:27;32.80;60.50
19817;DHT22;68323;49.394;8.434;2023-06-22T15:16:52;33.00;60.40
19817;DHT22;68323;49.394;8.434;2023-06-22T15:19:18;33.20;60.30
19817;DHT22;68323;49.394;8.434;2023-06-22T15:21:43;33.40;60.40
19817;DHT22;68323;49.394;8.434;2023-06-22T15:24:09;33.60;60.10
19817;DHT22;68323;49.394;8.434;2023-06-22T15:26:34;33.90;59.40
19817;DHT22;68323;49.394;8.434;2023-06-22T15:29:00;34.10;58.90
19817;DHT22;68323;49.394;8.434;2023-06-22T15:31:27;34.20;58.60
19817;DHT22;68323;49.394;8.434;2023-06-22T15:33:52;34.20;58.30
19817;DHT22;68323;49.394;8.434;2023-06-22T15:36:18;34.10;58.30
19817;DHT22;68323;49.394;8.434;2023-06-22T15:38:44;33.90;58.40